createdAt,value
2018-12-02T00:05:11.263Z,90.40
2018-12-02T00:11:14.884Z,91.40
2018-12-02T00:17:18.358Z,90.50
2018-12-02T00:23:21.769Z,90.10
2018-12-02T00:29:25.218Z,89.60
2018-12-02T00:35:28.670Z,89.80
2018-12-02T00:41:32.104Z,89.50
2018-12-02T00:47:35.620Z,90.50
2018-12-02T00:53:39.029Z,90.30
2018-12-02T00:59:42.624Z,90.90
2018-12-02T01:05:46.051Z,90.50
2018-12-02T01:11:52.399Z,90.10
2018-12-02T01:17:55.860Z,90.40
2018-12-02T01:23:59.335Z,91.80
2018-12-02T01:30:02.793Z,91.80
2018-12-02T01:36:06.359Z,91.40
2018-12-02T01:42:09.806Z,91.00
2018-12-02T01:48:13.228Z,91.00
2018-12-02T01:54:16.670Z,91.40
2018-12-02T02:00:22.652Z,90.90
2018-12-02T02:06:26.113Z,91.70
2018-12-02T02:12:29.583Z,91.30
2018-12-02T02:18:33.111Z,90.90
2018-12-02T02:24:36.621Z,91.10
2018-12-02T02:30:40.053Z,91.10
2018-12-02T02:36:43.525Z,91.20
2018-12-02T02:42:47.061Z,91.10
2018-12-02T02:48:50.518Z,91.80
2018-12-02T02:54:53.929Z,92.10
2018-12-02T03:00:57.351Z,90.70
2018-12-02T03:07:00.828Z,90.90
2018-12-02T03:13:04.369Z,91.90
2018-12-02T03:19:07.836Z,91.00
2018-12-02T03:25:12.452Z,89.80
2018-12-02T03:31:15.996Z,90.60
2018-12-02T03:37:19.459Z,90.50
2018-12-02T03:43:22.886Z,90.70
2018-12-02T03:49:26.360Z,91.40
2018-12-02T03:55:29.826Z,91.80
2018-12-02T04:01:33.275Z,91.70
2018-12-02T04:07:36.722Z,91.80
2018-12-02T04:13:40.144Z,90.90
2018-12-02T04:19:43.594Z,91.10
2018-12-02T04:25:47.002Z,91.60
2018-12-02T04:31:51.040Z,92.10
2018-12-02T04:37:54.528Z,91.40
2018-12-02T04:43:57.970Z,91.10
2018-12-02T04:50:01.436Z,92.20
2018-12-02T04:56:04.900Z,91.90
2018-12-02T05:02:08.327Z,92.10
2018-12-02T05:08:11.744Z,91.70
2018-12-02T05:14:15.188Z,92.20
2018-12-02T05:20:21.443Z,92.70
2018-12-02T05:26:24.905Z,92.60
2018-12-02T05:32:29.024Z,93.80
2018-12-02T05:38:32.559Z,94.50
2018-12-02T05:44:36.071Z,94.60
2018-12-02T05:50:39.487Z,93.90
2018-12-02T05:56:43.005Z,95.00
2018-12-02T06:02:46.443Z,94.30
2018-12-02T06:08:50.679Z,94.60
2018-12-02T06:14:54.147Z,94.70
2018-12-02T06:20:57.559Z,94.00
2018-12-02T06:27:00.982Z,94.80
2018-12-02T06:33:04.770Z,92.40
2018-12-02T06:39:10.613Z,93.60
2018-12-02T06:45:14.431Z,93.40
2018-12-02T06:51:17.890Z,94.30
2018-12-02T06:57:24.440Z,93.80
2018-12-02T07:05:02.954Z,93.40
2018-12-02T07:11:06.382Z,94.10
2018-12-02T07:17:09.826Z,93.80
2018-12-02T07:23:15.628Z,93.50
2018-12-02T07:29:19.050Z,94.70
2018-12-02T07:35:22.495Z,94.40
2018-12-02T07:41:26.396Z,94.80
2018-12-02T07:47:29.836Z,95.00
2018-12-02T07:53:33.340Z,94.50
2018-12-02T07:59:36.767Z,94.90
2018-12-02T08:05:40.247Z,94.70
2018-12-02T08:11:43.706Z,95.00
2018-12-02T08:17:47.236Z,95.20
2018-12-02T08:23:50.694Z,95.20
2018-12-02T08:29:54.745Z,95.10
2018-12-02T08:35:58.193Z,94.60
2018-12-02T08:42:01.676Z,94.50
2018-12-02T08:48:05.342Z,93.90
2018-12-02T08:54:08.789Z,94.20
2018-12-02T09:00:16.395Z,94.60
2018-12-02T09:06:19.867Z,93.00
2018-12-02T09:12:23.341Z,93.70
2018-12-02T09:18:26.778Z,94.10
2018-12-02T09:24:30.364Z,94.30
2018-12-02T09:30:34.692Z,93.10
2018-12-02T09:36:38.154Z,93.10
2018-12-02T09:42:42.670Z,93.40
2018-12-02T09:48:46.122Z,93.40
2018-12-02T09:54:49.591Z,93.80
2018-12-02T10:00:53.476Z,93.20
2018-12-02T10:06:56.936Z,92.70
2018-12-02T10:13:09.671Z,93.40
2018-12-02T10:19:13.590Z,92.90
2018-12-02T10:25:17.774Z,93.40
2018-12-02T10:31:21.236Z,92.80
2018-12-02T10:37:24.674Z,92.30
2018-12-02T10:43:28.125Z,92.20
2018-12-02T10:49:31.562Z,92.70
2018-12-02T10:55:47.888Z,92.00
2018-12-02T11:01:55.671Z,91.90
2018-12-02T11:07:59.150Z,92.90
2018-12-02T11:14:02.612Z,93.40
2018-12-02T11:20:07.599Z,93.90
2018-12-02T11:26:11.154Z,94.40
2018-12-02T11:32:14.604Z,94.60
2018-12-02T11:38:18.093Z,93.30
2018-12-02T11:44:21.533Z,93.90
2018-12-02T11:50:25.833Z,92.50
2018-12-02T11:56:29.351Z,93.80
2018-12-02T12:02:32.823Z,93.90
2018-12-02T12:08:36.353Z,92.30
2018-12-02T12:14:39.878Z,91.50
2018-12-02T12:20:43.749Z,91.80
2018-12-02T12:26:47.305Z,91.10
2018-12-02T12:32:50.886Z,90.90
2018-12-02T12:38:54.359Z,90.80
2018-12-02T12:44:57.819Z,90.60
2018-12-02T12:51:01.308Z,92.20
2018-12-02T12:57:05.111Z,93.70
2018-12-02T13:03:08.561Z,94.60
2018-12-02T13:09:12.011Z,94.00
2018-12-02T13:15:16.651Z,94.80
2018-12-02T13:21:20.115Z,94.30
2018-12-02T13:27:23.559Z,94.60
2018-12-02T13:33:27.055Z,93.60
2018-12-02T13:39:30.591Z,94.40
2018-12-02T13:45:34.067Z,94.40
2018-12-02T13:51:37.542Z,93.20
2018-12-02T13:57:41.044Z,93.10
2018-12-02T14:03:44.496Z,95.10
2018-12-02T14:09:47.936Z,94.40
2018-12-02T14:15:59.504Z,95.10
2018-12-02T14:22:02.933Z,95.60
2018-12-02T14:28:07.313Z,94.70
2018-12-02T14:34:10.828Z,94.50
2018-12-02T14:40:14.723Z,94.40
2018-12-02T14:46:18.245Z,94.70
2018-12-02T14:52:21.648Z,95.50
2018-12-02T14:58:25.127Z,96.00
2018-12-02T15:04:28.588Z,96.50
2018-12-02T15:10:32.048Z,96.00
2018-12-02T15:16:35.526Z,96.90
2018-12-02T15:22:39.856Z,98.20
2018-12-02T15:28:43.357Z,98.40
2018-12-02T15:34:46.881Z,95.40
2018-12-02T15:40:50.373Z,93.40
2018-12-02T15:46:53.864Z,93.90
2018-12-02T15:52:57.536Z,95.50
2018-12-02T15:59:01.221Z,96.10
2018-12-02T16:05:04.881Z,96.10
2018-12-02T16:11:08.346Z,95.70
2018-12-02T16:17:11.810Z,95.50
2018-12-02T16:23:16.867Z,95.30
2018-12-02T16:29:20.324Z,96.20
2018-12-02T16:35:24.652Z,97.30
2018-12-02T16:41:28.264Z,97.10
2018-12-02T16:47:31.790Z,97.80
2018-12-02T16:53:35.230Z,98.60
2018-12-02T16:59:38.732Z,97.80
2018-12-02T17:05:42.183Z,96.80
2018-12-02T17:11:45.642Z,97.00
2018-12-02T17:17:49.154Z,98.80
2018-12-02T17:23:52.632Z,98.50
2018-12-02T17:29:56.087Z,99.00
2018-12-02T17:35:59.533Z,99.60
2018-12-02T17:42:07.512Z,98.90
2018-12-02T17:48:10.977Z,99.80
2018-12-02T17:54:14.822Z,99.90
2018-12-02T18:00:24.197Z,99.90
2018-12-02T18:06:27.663Z,99.90
2018-12-02T18:12:31.107Z,99.90
2018-12-02T18:18:34.591Z,99.90
2018-12-02T18:24:38.051Z,99.90
2018-12-02T18:30:41.603Z,99.90
2018-12-02T18:36:45.103Z,99.90
2018-12-02T18:42:48.588Z,99.90
2018-12-02T18:48:52.214Z,99.90
2018-12-02T18:54:55.731Z,99.90
2018-12-02T19:00:59.394Z,99.90
2018-12-02T19:07:02.848Z,99.90
2018-12-02T19:13:06.635Z,99.90
2018-12-02T19:19:10.233Z,99.90
2018-12-02T19:25:16.239Z,99.90
2018-12-02T19:31:19.726Z,99.90
2018-12-02T19:37:23.725Z,99.90
2018-12-02T19:43:27.210Z,99.90
2018-12-02T19:49:30.701Z,99.90
2018-12-02T19:55:34.173Z,99.90
2018-12-02T20:01:37.650Z,99.90
2018-12-02T20:07:41.194Z,99.90
2018-12-02T20:13:44.607Z,99.90
2018-12-02T20:19:53.328Z,99.90
2018-12-02T20:26:01.597Z,99.90
2018-12-02T20:32:06.810Z,99.90
2018-12-02T20:38:10.262Z,99.90
2018-12-02T20:44:13.759Z,99.90
2018-12-02T20:50:18.051Z,99.90
2018-12-02T20:56:21.608Z,99.90
2018-12-02T21:02:25.117Z,99.90
2018-12-02T21:08:28.656Z,99.90
2018-12-02T21:14:32.135Z,99.90
2018-12-02T21:20:35.585Z,99.90
2018-12-02T21:26:39.019Z,99.90
2018-12-02T21:32:42.554Z,99.90
2018-12-02T21:38:45.975Z,99.90
2018-12-02T21:44:49.419Z,99.90
2018-12-02T21:50:54.498Z,99.90
2018-12-02T21:56:57.950Z,99.80
2018-12-02T22:03:01.418Z,99.00
2018-12-02T22:09:08.101Z,99.50
2018-12-02T22:15:11.592Z,99.60
2018-12-02T22:21:15.033Z,98.40
2018-12-02T22:27:18.506Z,98.70
2018-12-02T22:33:21.996Z,95.90
2018-12-02T22:39:26.020Z,95.80
2018-12-02T22:45:29.734Z,95.50
2018-12-02T22:51:33.204Z,95.60
2018-12-02T22:57:36.911Z,95.90
2018-12-02T23:03:40.660Z,96.10
2018-12-02T23:09:44.072Z,96.00
2018-12-02T23:15:47.592Z,96.80
2018-12-02T23:21:51.043Z,96.90
2018-12-02T23:27:54.490Z,96.20
2018-12-02T23:33:57.956Z,96.70
2018-12-02T23:40:01.410Z,96.90
2018-12-02T23:46:05.021Z,97.10
2018-12-02T23:52:08.530Z,96.40
2018-12-02T23:58:11.992Z,96.70
